createdAt,value
2019-05-14T00:01:47.304Z,10.60
2019-05-14T00:04:15.836Z,10.50
2019-05-14T00:06:44.314Z,10.50
2019-05-14T00:09:12.855Z,10.40
2019-05-14T00:11:42.153Z,10.40
2019-05-14T00:14:11.611Z,10.30
2019-05-14T00:16:42.371Z,10.20
2019-05-14T00:19:11.308Z,10.10
2019-05-14T00:21:42.139Z,10.10
2019-05-14T00:24:11.352Z,10.00
2019-05-14T00:26:42.308Z,9.90
2019-05-14T00:29:11.404Z,9.90
2019-05-14T00:31:41.793Z,9.80
2019-05-14T00:34:11.210Z,9.80
2019-05-14T00:36:41.666Z,9.70
2019-05-14T00:39:11.272Z,9.70
2019-05-14T00:41:42.098Z,9.60
2019-05-14T00:44:10.217Z,9.50
2019-05-14T00:46:40.953Z,9.50
2019-05-14T00:49:08.949Z,9.50
2019-05-14T00:51:37.744Z,9.50
2019-05-14T00:54:06.297Z,9.50
2019-05-14T00:56:34.833Z,9.40
2019-05-14T00:59:03.462Z,9.30
2019-05-14T01:01:32.012Z,9.30
2019-05-14T01:04:01.311Z,9.30
2019-05-14T01:06:31.510Z,9.20
2019-05-14T01:09:01.371Z,9.20
2019-05-14T01:11:31.510Z,9.10
2019-05-14T01:14:01.667Z,9.10
2019-05-14T01:16:31.744Z,9.00
2019-05-14T01:19:02.106Z,8.90
2019-05-14T01:21:31.227Z,8.90
2019-05-14T01:24:01.859Z,8.90
2019-05-14T01:26:31.038Z,8.80
2019-05-14T01:29:01.463Z,8.80
2019-05-14T01:31:31.476Z,8.80
2019-05-14T01:34:02.094Z,8.70
2019-05-14T01:36:32.016Z,8.70
2019-05-14T01:39:01.757Z,8.70
2019-05-14T01:41:31.692Z,8.60
2019-05-14T01:44:01.724Z,8.60
2019-05-14T01:46:31.636Z,8.60
2019-05-14T01:49:01.507Z,8.50
2019-05-14T01:51:31.583Z,8.50
2019-05-14T01:54:01.473Z,8.50
2019-05-14T01:56:31.932Z,8.50
2019-05-14T01:59:01.731Z,8.40
2019-05-14T02:01:31.642Z,8.40
2019-05-14T02:04:02.260Z,8.40
2019-05-14T02:06:31.819Z,8.30
2019-05-14T02:09:01.976Z,8.30
2019-05-14T02:11:32.099Z,8.40
2019-05-14T02:14:02.392Z,8.40
2019-05-14T02:16:31.446Z,8.40
2019-05-14T02:19:01.357Z,8.40
2019-05-14T02:21:31.768Z,8.40
2019-05-14T02:24:01.994Z,8.30
2019-05-14T02:26:31.538Z,8.20
2019-05-14T02:29:01.960Z,8.20
2019-05-14T02:31:30.688Z,8.20
2019-05-14T02:33:59.328Z,8.10
2019-05-14T02:36:30.802Z,8.10
2019-05-14T02:39:00.445Z,8.00
2019-05-14T02:41:29.858Z,7.90
2019-05-14T02:43:59.301Z,7.90
2019-05-14T02:46:29.555Z,7.90
2019-05-14T02:48:59.460Z,7.80
2019-05-14T02:51:29.995Z,7.70
2019-05-14T02:53:59.244Z,7.70
2019-05-14T02:56:29.522Z,7.60
2019-05-14T02:59:00.005Z,7.60
2019-05-14T03:01:30.168Z,7.50
2019-05-14T03:03:59.843Z,7.50
2019-05-14T03:06:29.309Z,7.40
2019-05-14T03:08:59.910Z,7.40
2019-05-14T03:11:29.639Z,7.40
2019-05-14T03:13:59.843Z,7.30
2019-05-14T03:16:32.542Z,7.30
2019-05-14T03:18:59.699Z,7.30
2019-05-14T03:21:30.433Z,7.20
2019-05-14T03:24:00.749Z,7.20
2019-05-14T03:26:29.667Z,7.40
2019-05-14T03:29:00.081Z,7.20
2019-05-14T03:31:32.948Z,7.10
2019-05-14T03:34:03.102Z,7.00
2019-05-14T03:36:34.894Z,7.00
2019-05-14T03:38:59.619Z,6.90
2019-05-14T03:41:30.542Z,6.80
2019-05-14T03:44:00.098Z,6.90
2019-05-14T03:46:44.152Z,6.80
2019-05-14T03:49:00.063Z,6.60
2019-05-14T03:51:29.796Z,6.60
2019-05-14T03:54:05.854Z,6.60
2019-05-14T03:56:29.927Z,6.50
2019-05-14T03:58:59.937Z,6.60
2019-05-14T04:01:29.826Z,6.50
2019-05-14T04:03:59.366Z,6.60
2019-05-14T04:06:30.113Z,6.60
2019-05-14T04:09:00.728Z,6.60
2019-05-14T04:11:31.226Z,6.70
2019-05-14T04:14:02.966Z,6.80
2019-05-14T04:16:33.901Z,6.80
2019-05-14T04:19:02.824Z,6.90
2019-05-14T04:21:32.626Z,6.90
2019-05-14T04:24:03.810Z,7.10
2019-05-14T04:26:53.177Z,7.30
2019-05-14T04:29:10.103Z,7.30
2019-05-14T04:31:39.901Z,7.20
2019-05-14T04:34:10.680Z,7.30
2019-05-14T04:36:39.366Z,7.40
2019-05-14T04:39:09.422Z,7.40
2019-05-14T04:41:39.384Z,7.50
2019-05-14T04:44:09.771Z,7.60
2019-05-14T04:46:39.466Z,7.60
2019-05-14T04:49:09.644Z,7.70
2019-05-14T04:51:39.680Z,7.80
2019-05-14T04:54:09.619Z,7.90
2019-05-14T04:56:39.873Z,8.00
2019-05-14T04:59:10.466Z,8.10
2019-05-14T05:01:40.199Z,8.10
2019-05-14T05:04:09.688Z,8.20
2019-05-14T05:06:39.737Z,8.30
2019-05-14T05:09:09.588Z,8.50
2019-05-14T05:11:39.390Z,8.60
2019-05-14T05:14:08.938Z,8.80
2019-05-14T05:16:39.305Z,9.00
2019-05-14T05:19:10.411Z,9.20
2019-05-14T05:21:38.899Z,9.30
2019-05-14T05:24:09.161Z,9.40
2019-05-14T05:26:39.209Z,9.40
2019-05-14T05:29:10.401Z,9.50
2019-05-14T05:31:38.279Z,9.60
2019-05-14T05:34:08.906Z,9.80
2019-05-14T05:36:38.076Z,10.00
2019-05-14T05:39:08.599Z,10.10
2019-05-14T05:41:38.484Z,10.20
2019-05-14T05:44:08.159Z,10.30
2019-05-14T05:46:38.855Z,10.40
2019-05-14T05:49:08.068Z,10.50
2019-05-14T05:51:39.083Z,10.90
2019-05-14T05:54:09.082Z,10.70
2019-05-14T05:56:38.773Z,10.80
2019-05-14T05:59:09.563Z,11.00
2019-05-14T06:01:44.915Z,11.10
2019-05-14T06:04:08.701Z,11.10
2019-05-14T06:06:39.072Z,11.40
2019-05-14T06:09:08.893Z,11.50
2019-05-14T06:11:38.130Z,11.50
2019-05-14T06:14:08.292Z,11.60
2019-05-14T06:16:38.515Z,11.60
2019-05-14T06:19:08.256Z,11.80
2019-05-14T06:21:39.533Z,11.90
2019-05-14T06:24:09.053Z,11.90
2019-05-14T06:26:38.455Z,11.90
2019-05-14T06:29:08.413Z,11.90
2019-05-14T06:31:38.698Z,11.90
2019-05-14T06:34:09.526Z,12.00
2019-05-14T06:36:39.527Z,12.00
2019-05-14T06:39:09.195Z,12.00
2019-05-14T06:41:42.590Z,12.00
2019-05-14T06:44:09.189Z,12.20
2019-05-14T06:46:39.118Z,12.40
2019-05-14T06:49:09.110Z,12.40
2019-05-14T06:51:39.481Z,12.60
2019-05-14T06:54:09.224Z,12.60
2019-05-14T06:56:38.539Z,12.80
2019-05-14T06:59:09.031Z,12.80
2019-05-14T07:01:38.427Z,12.80
2019-05-14T07:04:08.857Z,12.80
2019-05-14T07:06:39.107Z,12.70
2019-05-14T07:09:08.330Z,12.80
2019-05-14T07:11:38.827Z,12.70
2019-05-14T07:14:11.214Z,12.80
2019-05-14T07:16:39.042Z,12.80
2019-05-14T07:19:09.461Z,12.80
2019-05-14T07:21:38.397Z,12.90
2019-05-14T07:24:08.780Z,13.10
2019-05-14T07:26:38.815Z,13.20
2019-05-14T07:29:11.524Z,13.30
2019-05-14T07:31:38.555Z,13.60
2019-05-14T07:34:08.969Z,13.80
2019-05-14T07:36:38.667Z,13.90
2019-05-14T07:39:09.414Z,13.90
2019-05-14T07:41:39.107Z,14.00
2019-05-14T07:44:09.287Z,14.00
2019-05-14T07:46:38.975Z,14.10
2019-05-14T07:49:10.979Z,14.20
2019-05-14T07:51:38.806Z,14.20
2019-05-14T07:54:08.319Z,14.30
2019-05-14T07:56:38.461Z,14.50
2019-05-14T07:59:08.940Z,14.60
2019-05-14T08:01:38.865Z,14.40
2019-05-14T08:04:11.057Z,14.10
2019-05-14T08:06:39.379Z,14.00
2019-05-14T08:09:09.444Z,14.10
2019-05-14T08:11:38.806Z,14.30
2019-05-14T08:14:09.039Z,14.50
2019-05-14T08:16:38.125Z,14.60
2019-05-14T08:19:20.869Z,14.60
2019-05-14T08:21:38.698Z,14.60
2019-05-14T08:24:08.866Z,14.60
2019-05-14T08:26:38.189Z,14.80
2019-05-14T08:29:08.640Z,14.90
2019-05-14T08:31:38.325Z,14.90
2019-05-14T08:34:09.197Z,14.80
2019-05-14T08:36:37.982Z,14.80
2019-05-14T08:39:08.831Z,14.70
2019-05-14T08:41:38.463Z,14.90
2019-05-14T08:44:08.524Z,15.10
2019-05-14T08:46:38.910Z,15.00
2019-05-14T08:49:08.991Z,15.00
2019-05-14T08:51:38.839Z,15.20
2019-05-14T08:54:08.206Z,15.40
2019-05-14T08:56:38.947Z,15.50
2019-05-14T08:59:08.713Z,15.70
2019-05-14T09:01:38.728Z,15.90
2019-05-14T09:04:08.996Z,16.10
2019-05-14T09:06:38.507Z,16.20
2019-05-14T09:09:09.473Z,16.00
2019-05-14T09:11:44.574Z,15.80
2019-05-14T09:14:10.859Z,15.90
2019-05-14T09:16:46.475Z,16.10
2019-05-14T09:19:08.865Z,16.40
2019-05-14T09:21:39.839Z,16.50
2019-05-14T09:24:09.549Z,16.50
2019-05-14T09:26:39.041Z,16.70
2019-05-14T09:29:19.611Z,16.80
2019-05-14T09:31:39.103Z,17.00
2019-05-14T09:34:09.169Z,17.10
2019-05-14T09:36:39.520Z,17.30
2019-05-14T09:39:11.846Z,17.30
2019-05-14T09:41:38.882Z,17.10
2019-05-14T09:44:09.308Z,17.00
2019-05-14T09:46:38.506Z,16.90
2019-05-14T09:49:08.031Z,16.90
2019-05-14T09:51:38.401Z,17.00
2019-05-14T09:54:08.615Z,17.20
2019-05-14T09:56:39.540Z,17.20
2019-05-14T09:59:09.192Z,17.30
2019-05-14T10:01:38.361Z,17.00
2019-05-14T10:04:09.030Z,17.20
2019-05-14T10:06:39.246Z,17.10
2019-05-14T10:09:08.545Z,16.90
2019-05-14T10:11:38.390Z,16.80
2019-05-14T10:14:08.029Z,16.80
2019-05-14T10:16:38.536Z,16.70
2019-05-14T10:19:06.861Z,16.60
2019-05-14T10:21:35.424Z,16.60
2019-05-14T10:24:03.956Z,16.60
2019-05-14T10:26:32.539Z,16.50
2019-05-14T10:29:01.070Z,16.50
2019-05-14T10:31:29.609Z,16.50
2019-05-14T10:33:58.866Z,16.50
2019-05-14T10:36:29.808Z,16.70
2019-05-14T10:38:58.799Z,16.90
2019-05-14T10:41:29.151Z,17.00
2019-05-14T10:43:58.925Z,17.10
2019-05-14T10:46:29.102Z,17.20
2019-05-14T10:48:58.662Z,17.40
2019-05-14T10:51:28.400Z,17.50
2019-05-14T10:53:59.477Z,17.80
2019-05-14T10:56:29.543Z,18.10
2019-05-14T10:58:58.389Z,18.30
2019-05-14T11:01:28.454Z,18.60
2019-05-14T11:03:57.288Z,18.70
2019-05-14T11:06:25.816Z,18.90
2019-05-14T11:08:54.295Z,18.70
2019-05-14T11:11:22.833Z,18.60
2019-05-14T11:13:51.435Z,18.00
2019-05-14T11:16:19.973Z,17.90
2019-05-14T11:18:49.775Z,17.60
2019-05-14T11:21:25.638Z,17.20
2019-05-14T11:23:49.193Z,16.90
2019-05-14T11:26:18.583Z,17.00
2019-05-14T11:28:49.225Z,17.20
2019-05-14T11:31:19.094Z,17.40
2019-05-14T11:33:49.669Z,17.60
2019-05-14T11:36:18.855Z,17.80
2019-05-14T11:38:50.456Z,17.90
2019-05-14T11:41:18.612Z,17.50
2019-05-14T11:43:49.193Z,17.20
2019-05-14T11:46:24.986Z,17.30
2019-05-14T11:48:48.938Z,17.30
2019-05-14T11:51:20.670Z,17.60
2019-05-14T11:53:49.393Z,18.20
2019-05-14T11:56:19.422Z,18.70
2019-05-14T11:58:48.361Z,19.40
2019-05-14T12:01:18.936Z,19.80
2019-05-14T12:03:49.952Z,19.50
2019-05-14T12:06:18.654Z,19.70
2019-05-14T12:08:47.396Z,20.50
2019-05-14T12:11:18.538Z,20.50
2019-05-14T12:13:48.447Z,19.70
2019-05-14T12:16:16.348Z,19.10
2019-05-14T12:18:44.959Z,18.50
2019-05-14T12:21:13.548Z,18.10
2019-05-14T12:23:42.022Z,17.80
2019-05-14T12:26:10.576Z,18.10
2019-05-14T12:28:39.295Z,19.10
2019-05-14T12:31:09.234Z,20.90
2019-05-14T12:33:39.552Z,21.60
2019-05-14T12:36:10.144Z,21.10
2019-05-14T12:38:39.050Z,20.70
2019-05-14T12:41:09.272Z,21.30
2019-05-14T12:43:39.770Z,22.00
2019-05-14T12:46:10.335Z,22.50
2019-05-14T12:48:39.130Z,23.30
2019-05-14T12:51:08.989Z,23.50
2019-05-14T12:53:39.442Z,23.80
2019-05-14T12:56:08.654Z,24.60
2019-05-14T12:58:42.861Z,24.00
2019-05-14T13:03:37.675Z,21.60
2019-05-14T13:06:06.390Z,21.60
2019-05-14T13:08:38.635Z,22.30
2019-05-14T13:11:09.338Z,23.40
2019-05-14T13:13:42.267Z,23.80
2019-05-14T13:16:07.304Z,24.40
2019-05-14T13:18:38.440Z,25.10
2019-05-14T13:21:06.192Z,26.00
2019-05-14T13:23:34.786Z,25.50
2019-05-14T13:26:03.320Z,25.10
2019-05-14T13:28:31.885Z,24.50
2019-05-14T13:31:00.420Z,24.30
2019-05-14T13:33:28.908Z,23.70
2019-05-14T13:35:59.366Z,23.20
2019-05-14T13:38:27.649Z,23.10
2019-05-14T13:40:56.193Z,22.90
2019-05-14T13:43:24.744Z,23.50
2019-05-14T13:45:53.309Z,24.50
2019-05-14T13:48:21.778Z,25.60
2019-05-14T13:50:50.351Z,26.00
2019-05-14T13:53:19.163Z,26.60
2019-05-14T13:55:56.803Z,27.40
2019-05-14T13:58:20.787Z,28.10
2019-05-14T14:00:51.568Z,26.70
2019-05-14T14:03:20.010Z,24.90
2019-05-14T14:05:49.729Z,23.70
2019-05-14T14:08:19.284Z,22.40
2019-05-14T14:10:53.085Z,22.40
2019-05-14T14:13:19.857Z,22.90
2019-05-14T14:15:48.908Z,23.80
2019-05-14T14:18:21.050Z,25.00
2019-05-14T14:20:48.958Z,26.30
2019-05-14T14:23:25.592Z,27.00
2019-05-14T14:25:53.549Z,25.60
2019-05-14T14:28:18.276Z,25.60
2019-05-14T14:30:49.218Z,25.70
2019-05-14T14:33:18.492Z,23.80
2019-05-14T14:35:48.592Z,22.20
2019-05-14T14:38:19.751Z,21.30
2019-05-14T14:40:48.617Z,21.70
2019-05-14T14:43:18.767Z,23.60
2019-05-14T14:45:50.866Z,24.80
2019-05-14T14:48:20.399Z,24.70
2019-05-14T14:50:49.866Z,23.90
2019-05-14T14:53:21.853Z,22.30
2019-05-14T14:55:49.798Z,20.90
2019-05-14T14:58:19.978Z,19.90
2019-05-14T15:00:48.941Z,19.40
2019-05-14T15:03:21.238Z,20.60
2019-05-14T15:05:49.892Z,22.80
2019-05-14T15:08:20.096Z,25.10
2019-05-14T15:10:48.739Z,26.20
2019-05-14T15:13:17.296Z,26.80
2019-05-14T15:15:45.867Z,26.40
2019-05-14T15:18:14.723Z,25.50
2019-05-14T15:20:43.286Z,24.20
2019-05-14T15:23:11.945Z,23.00
2019-05-14T15:25:40.483Z,21.30
2019-05-14T15:28:09.538Z,20.30
2019-05-14T15:30:39.566Z,19.60
2019-05-14T15:33:09.168Z,19.20
2019-05-14T15:35:37.860Z,20.00
2019-05-14T15:38:11.142Z,20.90
2019-05-14T15:40:40.046Z,20.80
2019-05-14T15:43:09.847Z,20.20
2019-05-14T15:45:38.569Z,20.70
2019-05-14T15:48:08.903Z,21.50
2019-05-14T15:50:38.835Z,21.90
2019-05-14T15:53:10.871Z,21.80
2019-05-14T15:55:38.385Z,21.00
2019-05-14T15:58:08.786Z,20.20
2019-05-14T16:00:38.555Z,19.90
2019-05-14T16:03:08.547Z,20.50
2019-05-14T16:05:39.399Z,21.70
2019-05-14T16:08:07.769Z,21.60
2019-05-14T16:10:39.860Z,20.80
2019-05-14T16:13:08.812Z,19.80
2019-05-14T16:15:38.992Z,19.00
2019-05-14T16:18:15.443Z,18.60
2019-05-14T16:20:39.172Z,18.00
2019-05-14T16:23:10.904Z,17.50
2019-05-14T16:25:39.066Z,16.90
2019-05-14T16:28:08.819Z,17.00
2019-05-14T16:30:40.076Z,17.70
2019-05-14T16:33:09.325Z,19.10
2019-05-14T16:35:39.278Z,20.60
2019-05-14T16:38:08.455Z,22.10
2019-05-14T16:40:39.581Z,23.40
2019-05-14T16:43:07.194Z,24.30
2019-05-14T16:45:35.829Z,25.10
2019-05-14T16:48:04.381Z,25.70
2019-05-14T16:50:32.942Z,24.50
2019-05-14T16:53:01.477Z,23.60
2019-05-14T16:55:30.827Z,22.60
2019-05-14T16:57:59.416Z,21.20
2019-05-14T17:00:29.432Z,19.90
2019-05-14T17:02:58.954Z,18.80
2019-05-14T17:05:29.923Z,18.10
2019-05-14T17:07:58.730Z,17.50
2019-05-14T17:10:28.586Z,17.00
2019-05-14T17:13:01.387Z,16.70
2019-05-14T17:15:28.808Z,17.50
2019-05-14T17:17:59.661Z,19.00
2019-05-14T17:20:27.885Z,20.30
2019-05-14T17:22:56.448Z,21.60
2019-05-14T17:25:27.939Z,22.40
2019-05-14T17:27:55.956Z,23.20
2019-05-14T17:30:24.485Z,24.00
2019-05-14T17:32:53.040Z,24.60
2019-05-14T17:35:21.495Z,24.60
2019-05-14T17:37:50.076Z,24.40
2019-05-14T17:40:20.327Z,23.50
2019-05-14T17:42:48.867Z,23.30
2019-05-14T17:45:17.494Z,22.60
2019-05-14T17:47:46.030Z,22.60
2019-05-14T17:50:14.737Z,22.60
2019-05-14T17:52:45.248Z,22.90
2019-05-14T17:55:13.869Z,23.20
2019-05-14T17:57:47.462Z,23.10
2019-05-14T18:00:13.523Z,22.70
2019-05-14T18:02:41.987Z,22.20
2019-05-14T18:05:10.700Z,22.00
2019-05-14T18:07:39.320Z,21.70
2019-05-14T18:10:09.007Z,21.60
2019-05-14T18:12:39.692Z,21.30
2019-05-14T18:15:08.735Z,21.10
2019-05-14T18:17:39.298Z,21.10
2019-05-14T18:20:08.450Z,20.90
2019-05-14T18:22:42.203Z,20.20
2019-05-14T18:25:09.279Z,19.60
2019-05-14T18:27:39.263Z,19.30
2019-05-14T18:30:09.363Z,19.00
2019-05-14T18:32:38.015Z,18.70
2019-05-14T18:35:07.158Z,18.30
2019-05-14T18:37:35.763Z,17.80
2019-05-14T18:40:09.040Z,17.30
2019-05-14T18:42:39.032Z,16.50
2019-05-14T18:45:08.654Z,15.90
2019-05-14T18:47:39.794Z,15.30
2019-05-14T18:50:09.131Z,14.70
2019-05-14T18:52:39.983Z,14.40
2019-05-14T18:55:08.604Z,14.10
2019-05-14T18:57:38.230Z,13.80
2019-05-14T19:00:08.565Z,13.60
2019-05-14T19:02:39.269Z,13.50
2019-05-14T19:05:08.598Z,13.40
2019-05-14T19:07:39.537Z,13.20
2019-05-14T19:10:09.309Z,13.10
2019-05-14T19:12:38.742Z,13.00
2019-05-14T19:15:08.903Z,12.90
2019-05-14T19:17:38.656Z,12.90
2019-05-14T19:20:08.679Z,12.70
2019-05-14T19:22:39.643Z,12.70
2019-05-14T19:25:08.512Z,12.60
2019-05-14T19:27:38.005Z,12.60
2019-05-14T19:30:08.489Z,12.50
2019-05-14T19:32:39.261Z,12.40
2019-05-14T19:35:08.629Z,12.40
2019-05-14T19:37:39.140Z,12.40
2019-05-14T19:40:09.199Z,12.40
2019-05-14T19:42:39.225Z,12.30
2019-05-14T19:45:08.707Z,12.40
2019-05-14T19:47:39.759Z,12.40
2019-05-14T19:50:09.266Z,12.50
2019-05-14T19:52:38.996Z,12.50
2019-05-14T19:55:08.142Z,12.50
2019-05-14T19:57:38.330Z,12.50
2019-05-14T20:00:09.361Z,12.50
2019-05-14T20:02:38.286Z,12.60
2019-05-14T20:05:08.947Z,12.60
2019-05-14T20:07:39.005Z,12.50
2019-05-14T20:10:08.785Z,12.40
2019-05-14T20:12:45.088Z,12.30
2019-05-14T20:15:14.982Z,12.10
2019-05-14T20:17:45.756Z,12.10
2019-05-14T20:20:14.541Z,12.10
2019-05-14T20:22:43.193Z,12.10
2019-05-14T20:25:13.617Z,11.90
2019-05-14T20:27:42.256Z,11.80
2019-05-14T20:30:11.463Z,11.60
2019-05-14T20:32:40.088Z,11.50
2019-05-14T20:35:09.639Z,11.60
2019-05-14T20:37:38.971Z,11.70
2019-05-14T20:40:09.554Z,11.80
2019-05-14T20:42:39.323Z,11.80
2019-05-14T20:45:08.630Z,11.70
2019-05-14T20:47:38.997Z,11.60
2019-05-14T20:50:09.002Z,11.60
2019-05-14T20:52:37.909Z,11.50
2019-05-14T20:55:09.471Z,11.50
2019-05-14T20:57:38.551Z,11.50
2019-05-14T21:00:11.382Z,11.40
2019-05-14T21:02:39.584Z,11.40
2019-05-14T21:05:13.436Z,11.30
2019-05-14T21:07:38.894Z,11.20
2019-05-14T21:10:08.021Z,11.00
2019-05-14T21:12:39.129Z,11.00
2019-05-14T21:15:10.122Z,11.00
2019-05-14T21:17:39.112Z,11.00
2019-05-14T21:20:09.033Z,10.90
2019-05-14T21:22:40.218Z,10.70
2019-05-14T21:25:11.284Z,10.70
2019-05-14T21:27:48.090Z,10.70
2019-05-14T21:30:09.484Z,10.80
2019-05-14T21:32:39.187Z,10.70
2019-05-14T21:35:08.435Z,10.60
2019-05-14T21:37:39.231Z,10.50
2019-05-14T21:40:09.227Z,10.50
2019-05-14T21:42:38.533Z,10.60
2019-05-14T21:45:09.778Z,10.50
2019-05-14T21:47:38.778Z,10.50
2019-05-14T21:50:09.105Z,10.60
2019-05-14T21:52:39.290Z,10.40
2019-05-14T21:55:08.938Z,10.40
2019-05-14T21:57:38.197Z,10.40
2019-05-14T22:00:29.453Z,10.30
2019-05-14T22:02:58.422Z,10.30
2019-05-14T22:05:28.408Z,10.30
2019-05-14T22:07:57.973Z,10.40
2019-05-14T22:10:28.807Z,10.30
2019-05-14T22:12:58.345Z,10.50
2019-05-14T22:15:29.071Z,10.60
2019-05-14T22:17:58.719Z,10.60
2019-05-14T22:20:28.904Z,10.50
2019-05-14T22:22:59.117Z,10.40
2019-05-14T22:25:28.443Z,10.40
2019-05-14T22:28:10.668Z,10.40
2019-05-14T22:30:28.985Z,10.30
2019-05-14T22:33:00.330Z,10.20
2019-05-14T22:35:30.946Z,10.20
2019-05-14T22:37:59.688Z,10.10
2019-05-14T22:40:29.216Z,10.10
2019-05-14T22:43:00.105Z,10.10
2019-05-14T22:45:28.397Z,10.00
2019-05-14T22:47:58.926Z,9.90
2019-05-14T22:50:29.305Z,9.90
2019-05-14T22:52:58.434Z,9.90
2019-05-14T22:55:29.030Z,9.80
2019-05-14T22:57:59.318Z,9.70
2019-05-14T23:00:28.517Z,9.60
2019-05-14T23:02:57.546Z,9.60
2019-05-14T23:05:26.014Z,9.60
2019-05-14T23:07:54.571Z,9.60
2019-05-14T23:10:23.040Z,9.60
2019-05-14T23:12:51.503Z,9.60
2019-05-14T23:15:20.083Z,9.50
2019-05-14T23:17:48.667Z,9.40
2019-05-14T23:20:19.369Z,9.40
2019-05-14T23:22:49.210Z,9.40
2019-05-14T23:25:18.551Z,9.30
2019-05-14T23:27:48.142Z,9.20
2019-05-14T23:30:19.979Z,9.10
2019-05-14T23:32:49.138Z,9.00
2019-05-14T23:35:18.872Z,9.00
2019-05-14T23:37:48.840Z,8.90
2019-05-14T23:40:17.830Z,8.90
2019-05-14T23:42:48.764Z,9.00
2019-05-14T23:45:18.800Z,8.90
2019-05-14T23:47:49.016Z,8.80
2019-05-14T23:50:17.111Z,8.80
2019-05-14T23:52:45.673Z,8.80
2019-05-14T23:55:14.270Z,8.90
2019-05-14T23:57:42.762Z,8.80
